Time;durP1;ratioP1;P1;durP2;ratioP2;P2;SDS_P1;SDS_P2;PMS_P1;PMS_P2;Temp;Humidity;BMP_temperature;BMP_pressure;BME280_temperature;BME280_humidity;BME280_pressure;Samples;Min_cycle;Max_cycle;Signal;HPM_P1;HPM_P2
2022/03/23 00:01:17;;;;;;;20.20;14.23;;;5.40;93.70;;;;;;5053958;28;20197;-50
2022/03/23 00:03:46;;;;;;;18.07;13.40;;;5.40;93.60;;;;;;5052502;28;20215;-51
2022/03/23 00:06:17;;;;;;;18.33;14.27;;;5.30;93.80;;;;;;5033704;28;20230;-50
2022/03/23 00:08:46;;;;;;;22.97;14.27;;;5.30;93.80;;;;;;5042197;28;20225;-50
2022/03/23 00:11:14;;;;;;;17.50;13.73;;;5.30;93.80;;;;;;5053570;28;20225;-50
2022/03/23 00:13:42;;;;;;;18.37;12.97;;;5.20;93.80;;;;;;5052833;28;20740;-51
2022/03/23 00:16:11;;;;;;;18.30;12.97;;;5.20;94.00;;;;;;5052364;28;20674;-50
2022/03/23 00:18:40;;;;;;;20.00;13.60;;;5.20;94.00;;;;;;5053334;28;20236;-50
2022/03/23 00:21:08;;;;;;;19.63;13.43;;;5.10;94.00;;;;;;5053084;28;20674;-50
2022/03/23 00:23:36;;;;;;;18.63;13.57;;;5.10;94.00;;;;;;5052835;28;20362;-50
2022/03/23 00:26:04;;;;;;;17.50;12.73;;;5.10;94.20;;;;;;5052970;28;20613;-50
2022/03/23 00:28:32;;;;;;;18.03;13.37;;;5.10;94.20;;;;;;5053225;28;20230;-50
2022/03/23 00:31:00;;;;;;;18.10;12.53;;;5.10;94.20;;;;;;5052919;28;20255;-50
2022/03/23 00:33:34;;;;;;;18.20;13.10;;;5.00;94.20;;;;;;5052730;28;20227;-50
2022/03/23 00:36:03;;;;;;;18.70;12.97;;;5.10;94.10;;;;;;5053354;28;20209;-50
2022/03/23 00:38:31;;;;;;;19.33;13.30;;;5.00;94.10;;;;;;5052196;28;20274;-50
2022/03/23 00:41:00;;;;;;;18.57;12.97;;;4.90;94.10;;;;;;5053020;28;20757;-50
2022/03/23 00:43:28;;;;;;;21.70;13.47;;;4.90;94.00;;;;;;5052040;28;20773;-51
2022/03/23 00:45:56;;;;;;;17.33;13.67;;;4.90;94.00;;;;;;5052837;28;20727;-51
2022/03/23 00:48:24;;;;;;;17.90;13.23;;;4.90;94.00;;;;;;5052534;28;20227;-50
2022/03/23 00:50:55;;;;;;;17.37;12.80;;;4.90;93.90;;;;;;5052892;28;20228;-51
2022/03/23 00:53:23;;;;;;;16.97;13.03;;;4.80;94.00;;;;;;5053014;28;20208;-50
2022/03/23 00:55:51;;;;;;;17.00;13.17;;;4.80;94.00;;;;;;5051849;28;20226;-50
2022/03/23 00:58:20;;;;;;;20.93;12.70;;;4.80;94.00;;;;;;5052377;28;20221;-50
2022/03/23 01:00:48;;;;;;;16.57;12.33;;;4.80;94.10;;;;;;5051385;28;20589;-51
2022/03/23 01:03:18;;;;;;;17.53;12.90;;;4.70;94.10;;;;;;5052073;28;20284;-51
2022/03/23 01:05:46;;;;;;;19.20;13.13;;;4.70;94.10;;;;;;5052072;28;20257;-50
2022/03/23 01:08:16;;;;;;;17.40;13.07;;;4.70;94.20;;;;;;5052135;28;20243;-51
2022/03/23 01:10:44;;;;;;;14.93;12.27;;;4.70;94.10;;;;;;5052212;28;20205;-50
2022/03/23 01:13:12;;;;;;;22.17;13.63;;;4.60;94.10;;;;;;5052127;28;20211;-50
2022/03/23 01:15:41;;;;;;;17.57;13.17;;;4.60;94.00;;;;;;5052462;28;20255;-50
2022/03/23 01:18:09;;;;;;;19.20;13.10;;;4.60;94.10;;;;;;5052085;28;20244;-51
2022/03/23 01:20:37;;;;;;;18.97;12.53;;;4.60;94.10;;;;;;5051951;28;20242;-50
2022/03/23 01:23:05;;;;;;;16.00;12.53;;;4.60;94.10;;;;;;5051814;28;20625;-50
2022/03/23 01:25:35;;;;;;;18.03;12.40;;;4.60;94.00;;;;;;5052482;28;20207;-50
2022/03/23 01:28:04;;;;;;;16.20;13.00;;;4.60;94.00;;;;;;5052333;28;20656;-51
2022/03/23 01:30:32;;;;;;;18.10;12.80;;;4.60;93.90;;;;;;5052459;28;20246;-50
2022/03/23 01:33:03;;;;;;;19.10;12.87;;;4.60;94.00;;;;;;5051570;28;20243;-51
2022/03/23 01:35:31;;;;;;;17.30;12.47;;;4.50;93.90;;;;;;5052167;28;20750;-51
2022/03/23 01:38:00;;;;;;;16.87;12.27;;;4.50;93.90;;;;;;5052100;28;20304;-51
2022/03/23 01:40:28;;;;;;;18.20;12.77;;;4.50;93.80;;;;;;5051586;28;20875;-51
2022/03/23 01:42:58;;;;;;;18.67;12.67;;;4.50;93.90;;;;;;5051450;28;20258;-51
2022/03/23 01:45:26;;;;;;;17.67;12.67;;;4.40;94.00;;;;;;5051680;28;20620;-51
2022/03/23 01:47:54;;;;;;;20.63;13.77;;;4.40;94.10;;;;;;5051500;28;20227;-51
2022/03/23 01:50:22;;;;;;;17.77;12.67;;;4.40;94.10;;;;;;5050877;28;20218;-50
2022/03/23 01:52:50;;;;;;;19.20;12.07;;;4.40;94.00;;;;;;5050767;28;20275;-51
2022/03/23 01:55:20;;;;;;;15.83;13.03;;;4.40;94.00;;;;;;5050745;28;20214;-51
2022/03/23 01:57:52;;;;;;;16.13;12.37;;;4.40;93.90;;;;;;5051081;28;20892;-50
2022/03/23 02:00:22;;;;;;;17.93;12.50;;;4.40;93.90;;;;;;5051544;28;20281;-50
2022/03/23 02:02:52;;;;;;;18.57;12.00;;;4.40;93.80;;;;;;5051215;28;20213;-50
2022/03/23 02:05:20;;;;;;;19.47;12.70;;;4.40;93.80;;;;;;5051429;28;20207;-51
2022/03/23 02:07:48;;;;;;;15.50;12.07;;;4.40;93.80;;;;;;5051295;28;20231;-51
2022/03/23 02:10:16;;;;;;;15.63;12.30;;;4.40;93.90;;;;;;5051347;28;20211;-51
2022/03/23 02:12:45;;;;;;;22.10;13.50;;;4.30;94.00;;;;;;5050919;28;20233;-51
2022/03/23 02:15:16;;;;;;;17.97;12.20;;;4.40;94.10;;;;;;5051358;28;20598;-51
2022/03/23 02:17:46;;;;;;;18.63;13.27;;;4.30;94.20;;;;;;5051088;28;20770;-50
2022/03/23 02:20:14;;;;;;;18.63;12.53;;;4.30;94.10;;;;;;5041147;28;20204;-50
2022/03/23 02:22:44;;;;;;;18.03;13.20;;;4.30;94.20;;;;;;5030824;28;20695;-51
2022/03/23 02:25:12;;;;;;;16.60;13.53;;;4.30;94.30;;;;;;5030720;28;20644;-50
2022/03/23 02:27:41;;;;;;;17.93;12.83;;;4.30;94.40;;;;;;5030918;28;20643;-50
2022/03/23 02:30:11;;;;;;;17.00;13.07;;;4.20;94.70;;;;;;5030986;28;20219;-50
2022/03/23 02:32:41;;;;;;;17.60;12.77;;;4.10;94.90;;;;;;5030639;28;20317;-51
2022/03/23 02:35:11;;;;;;;16.90;12.50;;;4.00;94.90;;;;;;5030809;28;20209;-50
2022/03/23 02:37:40;;;;;;;19.37;13.60;;;4.00;94.70;;;;;;5031154;28;20300;-50
2022/03/23 02:40:11;;;;;;;18.57;13.90;;;4.00;94.90;;;;;;5030841;28;20734;-50
2022/03/23 02:42:40;;;;;;;19.77;13.10;;;4.00;95.10;;;;;;5036017;28;20213;-50
2022/03/23 02:45:10;;;;;;;18.27;13.97;;;4.00;95.10;;;;;;5051019;28;20214;-50
2022/03/23 02:47:41;;;;;;;19.30;13.63;;;3.90;95.30;;;;;;5051078;28;20229;-50
2022/03/23 02:50:10;;;;;;;21.63;14.47;;;3.90;95.30;;;;;;5050918;28;20198;-50
2022/03/23 03:01:52;;;;;;;19.43;14.10;;;3.90;95.40;;;;;;5050294;28;20236;-50
2022/03/23 03:04:14;;;;;;;19.20;14.23;;;3.80;95.60;;;;;;5050303;28;20262;-51
2022/03/23 03:06:42;;;;;;;18.57;13.30;;;3.80;95.80;;;;;;5054505;28;20207;-51
2022/03/23 03:09:10;;;;;;;20.10;12.87;;;3.70;95.80;;;;;;5053903;28;20197;-51
2022/03/23 03:11:40;;;;;;;17.40;13.47;;;3.70;95.90;;;;;;5054638;28;20213;-51
2022/03/23 03:14:08;;;;;;;17.07;13.47;;;3.70;96.00;;;;;;5054231;28;20251;-51
2022/03/23 03:16:36;;;;;;;22.47;14.60;;;3.70;95.90;;;;;;5054517;28;20205;-51
2022/03/23 03:19:10;;;;;;;20.00;14.30;;;3.70;96.30;;;;;;5054479;28;20211;-50
2022/03/23 03:21:39;;;;;;;20.63;14.30;;;3.60;96.40;;;;;;5054607;28;20208;-50
2022/03/23 03:24:08;;;;;;;21.80;14.50;;;3.60;96.50;;;;;;5054237;28;20200;-50
2022/03/23 03:26:36;;;;;;;19.50;14.17;;;3.60;96.40;;;;;;5054358;28;20206;-50
2022/03/23 03:29:05;;;;;;;21.23;14.33;;;3.60;96.40;;;;;;5054392;28;20271;-50
2022/03/23 03:31:34;;;;;;;20.13;15.50;;;3.60;96.40;;;;;;5054380;28;20260;-50
2022/03/23 03:34:02;;;;;;;18.80;14.60;;;3.50;96.90;;;;;;5053658;28;20222;-49
2022/03/23 03:36:30;;;;;;;20.10;14.87;;;3.50;96.90;;;;;;5054491;28;20208;-50
2022/03/23 03:38:58;;;;;;;17.73;15.10;;;3.40;96.90;;;;;;5054288;28;20205;-50
2022/03/23 03:41:27;;;;;;;19.77;15.03;;;3.30;97.20;;;;;;5054588;28;20261;-50
2022/03/23 03:43:56;;;;;;;17.77;14.27;;;3.30;97.30;;;;;;5053656;28;20214;-50
2022/03/23 03:46:25;;;;;;;21.63;14.40;;;3.30;97.50;;;;;;5054333;28;20205;-51
2022/03/23 03:48:54;;;;;;;17.73;13.70;;;3.20;97.50;;;;;;5053971;28;20253;-50
2022/03/23 03:51:22;;;;;;;19.40;14.60;;;3.20;97.70;;;;;;5054143;28;20202;-50
2022/03/23 03:53:51;;;;;;;21.83;15.63;;;3.20;97.70;;;;;;5053470;28;20320;-50
2022/03/23 03:56:19;;;;;;;21.23;15.13;;;3.10;97.70;;;;;;5047728;28;20211;-50
2022/03/23 03:58:48;;;;;;;21.17;15.03;;;3.10;98.00;;;;;;5035138;28;20280;-50
2022/03/23 04:01:16;;;;;;;20.70;14.70;;;3.10;97.70;;;;;;5053911;28;20210;-50
2022/03/23 04:03:46;;;;;;;18.13;13.93;;;3.10;97.90;;;;;;5053551;28;20201;-50
2022/03/23 04:06:28;;;;;;;21.50;14.40;;;3.00;98.10;;;;;;5051903;28;20259;-50
2022/03/23 04:08:57;;;;;;;21.00;15.13;;;2.90;98.20;;;;;;5053764;28;20698;-50
2022/03/23 04:11:25;;;;;;;21.83;15.33;;;3.00;98.40;;;;;;5053731;28;20263;-50
2022/03/23 04:13:53;;;;;;;19.03;14.17;;;2.90;98.40;;;;;;5048659;28;20224;-50
2022/03/23 04:16:21;;;;;;;18.33;14.30;;;2.90;98.30;;;;;;5032641;28;20801;-50
2022/03/23 04:18:51;;;;;;;21.47;14.33;;;2.90;98.30;;;;;;5033024;28;20230;-51
2022/03/23 04:21:19;;;;;;;21.20;15.80;;;2.80;98.40;;;;;;5033251;28;20214;-50
2022/03/23 04:23:47;;;;;;;20.90;15.53;;;2.80;98.50;;;;;;5033117;28;20630;-50
2022/03/23 04:26:15;;;;;;;21.50;15.40;;;2.80;98.60;;;;;;5033614;28;20210;-50
2022/03/23 04:28:43;;;;;;;19.93;14.13;;;2.90;98.30;;;;;;5033302;28;20262;-50
2022/03/23 04:31:11;;;;;;;23.97;14.90;;;2.90;98.20;;;;;;5033161;28;20215;-50
2022/03/23 04:33:40;;;;;;;21.43;14.60;;;2.90;98.10;;;;;;5034186;28;20276;-50
2022/03/23 04:36:09;;;;;;;21.13;14.67;;;2.90;98.10;;;;;;5052060;28;20205;-50
2022/03/23 04:38:37;;;;;;;20.67;14.80;;;2.90;98.60;;;;;;5053068;28;20269;-50
2022/03/23 04:41:05;;;;;;;21.47;14.90;;;2.90;98.20;;;;;;5053142;28;20209;-50
2022/03/23 04:43:35;;;;;;;24.80;14.90;;;2.90;98.10;;;;;;5052308;28;20210;-50
2022/03/23 04:46:03;;;;;;;19.63;14.37;;;2.90;98.00;;;;;;5052525;28;20570;-50
2022/03/23 04:48:31;;;;;;;21.10;14.83;;;2.90;98.30;;;;;;5053116;28;20270;-49
2022/03/23 04:50:59;;;;;;;21.33;14.53;;;2.90;98.30;;;;;;5053155;28;20266;-50
2022/03/23 04:53:28;;;;;;;22.70;15.40;;;2.80;98.50;;;;;;5052329;28;20225;-50
2022/03/23 04:55:56;;;;;;;23.80;16.23;;;2.80;98.40;;;;;;5051902;28;20230;-50
2022/03/23 04:58:25;;;;;;;22.07;15.07;;;2.80;98.50;;;;;;5052280;28;20227;-50
2022/03/23 05:00:54;;;;;;;19.13;14.33;;;2.80;98.50;;;;;;5052726;28;20201;-50
2022/03/23 05:03:24;;;;;;;24.43;14.40;;;2.80;98.20;;;;;;5052005;28;20228;-50
2022/03/23 05:05:52;;;;;;;19.13;13.97;;;2.80;98.50;;;;;;5052477;28;20592;-50
2022/03/23 05:08:20;;;;;;;19.87;14.20;;;2.80;98.10;;;;;;5052004;28;20811;-49
2022/03/23 05:10:50;;;;;;;21.83;15.40;;;2.80;98.40;;;;;;5052967;28;20212;-50
2022/03/23 05:13:18;;;;;;;22.27;15.97;;;2.80;98.40;;;;;;5051792;28;20686;-51
2022/03/23 05:15:46;;;;;;;21.27;15.30;;;2.70;98.60;;;;;;5052156;28;20256;-50
2022/03/23 05:18:14;;;;;;;21.33;14.73;;;2.70;98.50;;;;;;5052177;28;20221;-50
2022/03/23 05:20:42;;;;;;;19.13;14.20;;;2.70;98.40;;;;;;5051939;28;20247;-50
2022/03/23 05:23:10;;;;;;;22.37;14.70;;;2.70;98.50;;;;;;5052130;28;20241;-50
2022/03/23 05:25:38;;;;;;;25.07;15.67;;;2.70;98.90;;;;;;5052240;28;20213;-50
2022/03/23 05:28:09;;;;;;;21.60;15.67;;;2.60;98.60;;;;;;5051985;28;20279;-50
2022/03/23 05:30:37;;;;;;;21.27;14.57;;;2.60;98.90;;;;;;5052184;28;20234;-50
2022/03/23 05:33:06;;;;;;;22.40;15.47;;;2.60;99.10;;;;;;5051428;28;20214;-50
2022/03/23 05:35:34;;;;;;;21.37;15.87;;;2.60;99.40;;;;;;5034293;28;20209;-50
2022/03/23 05:38:02;;;;;;;22.07;16.73;;;2.50;99.60;;;;;;5032060;28;20719;-50
2022/03/23 05:40:30;;;;;;;20.70;15.30;;;2.50;99.70;;;;;;5032007;28;20252;-50
2022/03/23 05:42:59;;;;;;;21.53;14.70;;;2.60;99.70;;;;;;5031228;28;20256;-50
2022/03/23 05:45:29;;;;;;;24.10;15.80;;;2.60;99.60;;;;;;5031645;28;20236;-50
2022/03/23 05:47:57;;;;;;;20.20;14.97;;;2.60;99.70;;;;;;5031326;28;20927;-51
2022/03/23 05:50:25;;;;;;;23.60;15.77;;;2.60;99.50;;;;;;5032761;28;20204;-49
2022/03/23 05:52:53;;;;;;;20.50;15.37;;;2.70;99.90;;;;;;5033737;28;20213;-49
2022/03/23 05:55:21;;;;;;;21.33;15.20;;;2.60;99.70;;;;;;5030513;28;20287;-51
2022/03/23 05:57:49;;;;;;;20.50;15.17;;;2.70;99.50;;;;;;5031605;28;20287;-51
2022/03/23 06:00:19;;;;;;;28.50;16.73;;;2.80;99.50;;;;;;5044715;28;20681;-51
2022/03/23 06:02:51;;;;;;;20.53;14.83;;;2.90;99.70;;;;;;5051176;28;20198;-51
2022/03/23 06:05:19;;;;;;;21.67;15.50;;;2.90;99.30;;;;;;5050645;28;20201;-51
2022/03/23 06:07:47;;;;;;;21.83;15.47;;;3.10;99.20;;;;;;5051645;28;20279;-51
2022/03/23 06:10:15;;;;;;;20.50;15.73;;;3.20;99.20;;;;;;5051063;28;20740;-50
2022/03/23 06:12:43;;;;;;;20.03;15.27;;;3.30;99.50;;;;;;5050697;28;20213;-51
2022/03/23 06:15:12;;;;;;;24.23;15.47;;;3.30;99.20;;;;;;5051272;28;20222;-51
2022/03/23 06:17:40;;;;;;;20.23;15.70;;;3.40;99.20;;;;;;5051135;28;20278;-51
2022/03/23 06:20:11;;;;;;;21.07;15.50;;;3.50;99.30;;;;;;5051403;28;20209;-51
2022/03/23 06:22:39;;;;;;;21.03;15.43;;;3.60;99.90;;;;;;5050809;28;20272;-51
2022/03/23 06:25:09;;;;;;;22.70;16.67;;;3.60;99.80;;;;;;5051110;28;20251;-51
2022/03/23 06:27:37;;;;;;;21.57;15.47;;;3.70;99.60;;;;;;5050922;28;20221;-51
2022/03/23 06:30:06;;;;;;;24.00;15.73;;;3.90;99.80;;;;;;5051072;28;20213;-51
2022/03/23 06:32:34;;;;;;;20.20;15.43;;;4.00;99.80;;;;;;5050553;28;20190;-52
2022/03/23 06:35:03;;;;;;;21.63;15.80;;;4.10;99.90;;;;;;5050535;28;20231;-51
2022/03/23 06:37:33;;;;;;;20.37;16.23;;;4.20;99.90;;;;;;5034961;28;20707;-51
2022/03/23 06:40:01;;;;;;;21.23;15.87;;;4.30;99.90;;;;;;5039361;28;20396;-51
2022/03/23 06:42:29;;;;;;;20.63;15.83;;;4.40;99.90;;;;;;5050232;28;20242;-51
2022/03/23 06:44:57;;;;;;;23.13;16.57;;;4.60;99.90;;;;;;5050517;28;20268;-50
2022/03/23 06:47:25;;;;;;;21.90;17.50;;;4.80;99.90;;;;;;5050655;28;20231;-51
2022/03/23 06:49:54;;;;;;;24.27;16.40;;;5.00;99.90;;;;;;5050376;28;20212;-52
2022/03/23 06:52:22;;;;;;;21.70;16.23;;;5.20;99.90;;;;;;5050166;28;20232;-51
2022/03/23 06:54:51;;;;;;;23.90;15.13;;;5.60;99.90;;;;;;5035053;28;20233;-51
2022/03/23 06:57:19;;;;;;;18.57;14.83;;;6.10;99.90;;;;;;5030757;28;20226;-50
2022/03/23 06:59:47;;;;;;;21.27;14.30;;;6.60;99.70;;;;;;5040430;28;20251;-51
2022/03/23 07:02:15;;;;;;;21.17;14.87;;;6.80;99.40;;;;;;5050120;28;20210;-51
2022/03/23 07:04:44;;;;;;;19.07;14.93;;;7.20;99.30;;;;;;5041942;28;20211;-51
2022/03/23 07:07:12;;;;;;;17.83;14.83;;;7.50;98.50;;;;;;5031121;28;20640;-51
2022/03/23 07:09:41;;;;;;;17.67;14.33;;;7.70;97.90;;;;;;5049127;28;20205;-51
2022/03/23 07:12:12;;;;;;;20.00;15.20;;;7.90;98.30;;;;;;5050135;28;20206;-51
2022/03/23 07:14:41;;;;;;;16.27;14.50;;;8.10;97.90;;;;;;5050448;28;20271;-51
2022/03/23 07:17:09;;;;;;;20.97;15.63;;;8.40;98.10;;;;;;5050576;28;20279;-51
2022/03/23 07:19:37;;;;;;;18.73;14.90;;;8.70;97.90;;;;;;5050168;28;20268;-51
2022/03/23 07:22:06;;;;;;;18.77;15.13;;;8.80;97.30;;;;;;5049984;28;20209;-51
2022/03/23 07:24:34;;;;;;;18.03;15.23;;;8.90;97.10;;;;;;5035815;28;20664;-50
2022/03/23 07:27:07;;;;;;;20.40;14.80;;;9.00;97.00;;;;;;5030625;28;20318;-50
2022/03/23 07:29:52;;;;;;;19.47;15.63;;;9.10;96.40;;;;;;5030096;28;20688;-51
2022/03/23 07:32:20;;;;;;;19.57;16.00;;;9.20;96.60;;;;;;5029943;28;20218;-51
2022/03/23 07:34:48;;;;;;;17.43;15.40;;;9.40;96.40;;;;;;5030262;28;20227;-50
2022/03/23 07:37:16;;;;;;;22.20;15.90;;;9.60;96.70;;;;;;5030566;28;20223;-51
2022/03/23 07:39:45;;;;;;;17.90;14.33;;;9.80;96.20;;;;;;5030546;28;20975;-51
2022/03/23 07:42:13;;;;;;;18.87;15.40;;;9.90;95.10;;;;;;5029928;28;20222;-51
2022/03/23 07:44:41;;;;;;;17.17;14.97;;;10.00;94.60;;;;;;5030005;28;20243;-51
2022/03/23 07:47:11;;;;;;;18.23;16.20;;;10.20;95.20;;;;;;5029022;28;20234;-51
2022/03/23 07:49:40;;;;;;;18.67;15.80;;;10.40;94.90;;;;;;5033600;28;20206;-50
2022/03/23 07:52:08;;;;;;;18.10;15.53;;;10.60;94.90;;;;;;5031513;28;20264;-51
2022/03/23 07:54:36;;;;;;;18.60;15.10;;;10.80;94.80;;;;;;5034067;28;20221;-50
2022/03/23 07:57:05;;;;;;;19.10;15.80;;;10.90;95.20;;;;;;5034219;28;20248;-50
2022/03/23 07:59:34;;;;;;;17.73;15.40;;;11.00;95.10;;;;;;5040725;28;20634;-51
2022/03/23 08:02:02;;;;;;;21.47;15.47;;;11.10;95.10;;;;;;5052206;28;20220;-51
2022/03/23 08:04:32;;;;;;;17.47;15.47;;;11.00;95.00;;;;;;5052948;28;20215;-50
2022/03/23 08:07:01;;;;;;;19.03;15.57;;;10.80;95.10;;;;;;5053433;28;20232;-50
2022/03/23 08:09:29;;;;;;;19.10;15.80;;;10.80;95.40;;;;;;5053469;28;20201;-50
2022/03/23 08:11:57;;;;;;;17.60;15.13;;;10.70;95.30;;;;;;5053535;28;20267;-50
2022/03/23 08:14:26;;;;;;;20.77;16.03;;;10.60;96.20;;;;;;5053410;28;20213;-51
2022/03/23 08:16:54;;;;;;;19.73;15.97;;;10.60;96.40;;;;;;5053861;28;20229;-51
2022/03/23 08:19:23;;;;;;;19.73;15.67;;;10.70;96.40;;;;;;5053531;28;20209;-50
2022/03/23 08:21:53;;;;;;;19.70;15.17;;;10.80;95.50;;;;;;5049027;28;20201;-51
2022/03/23 08:24:21;;;;;;;19.27;15.30;;;10.80;95.50;;;;;;5047724;28;20214;-50
2022/03/23 08:26:49;;;;;;;17.83;15.60;;;10.90;94.90;;;;;;5046748;28;20201;-51
2022/03/23 08:29:18;;;;;;;18.67;15.10;;;10.90;95.10;;;;;;5044667;28;20275;-51
2022/03/23 08:31:46;;;;;;;20.80;15.07;;;11.00;95.00;;;;;;5052443;28;20263;-51
2022/03/23 08:34:14;;;;;;;18.63;15.90;;;11.10;95.00;;;;;;5046321;28;20209;-51
2022/03/23 08:36:42;;;;;;;21.17;15.70;;;11.20;95.50;;;;;;5032969;28;20730;-51
2022/03/23 08:39:12;;;;;;;18.77;15.30;;;11.30;95.10;;;;;;5033106;28;20206;-51
2022/03/23 08:41:40;;;;;;;17.83;15.40;;;11.20;93.80;;;;;;5033225;28;20210;-51
2022/03/23 08:44:09;;;;;;;19.17;14.60;;;11.30;93.80;;;;;;5032865;28;20210;-50
2022/03/23 08:46:37;;;;;;;20.43;14.97;;;11.30;92.90;;;;;;5035009;28;20256;-50
2022/03/23 08:49:05;;;;;;;18.53;15.47;;;11.40;92.30;;;;;;5035566;28;20205;-51
2022/03/23 08:51:33;;;;;;;18.43;15.50;;;11.50;91.40;;;;;;5032893;28;20252;-51
2022/03/23 08:54:02;;;;;;;19.60;15.87;;;11.50;92.50;;;;;;5031907;28;20210;-51
2022/03/23 08:56:31;;;;;;;21.47;16.07;;;11.60;92.20;;;;;;5032722;28;20226;-52
2022/03/23 08:58:59;;;;;;;18.43;15.73;;;11.60;93.10;;;;;;5035393;28;20245;-52
2022/03/23 09:01:27;;;;;;;17.87;15.53;;;11.70;93.70;;;;;;5051941;28;20202;-51
2022/03/23 09:04:00;;;;;;;19.00;16.23;;;11.80;92.70;;;;;;5049997;28;20621;-51
2022/03/23 09:06:28;;;;;;;16.60;14.30;;;11.90;93.40;;;;;;5043675;28;20201;-51
2022/03/23 09:08:56;;;;;;;18.60;14.97;;;12.00;92.70;;;;;;5052374;28;20201;-51
2022/03/23 09:11:25;;;;;;;18.93;15.47;;;12.00;91.60;;;;;;5052313;28;20231;-51
2022/03/23 09:13:54;;;;;;;18.93;16.03;;;12.00;91.60;;;;;;5051823;28;20245;-52
2022/03/23 09:16:22;;;;;;;21.53;16.20;;;12.10;92.10;;;;;;5052252;28;20278;-51
2022/03/23 09:18:50;;;;;;;18.13;15.80;;;12.20;92.60;;;;;;5051822;28;20722;-51
2022/03/23 09:21:19;;;;;;;18.47;16.23;;;12.30;93.50;;;;;;5051824;28;20209;-51
2022/03/23 09:23:48;;;;;;;20.27;15.53;;;12.40;92.40;;;;;;5051838;28;20300;-50
2022/03/23 09:26:16;;;;;;;19.17;15.60;;;12.40;92.70;;;;;;5052418;28;20201;-51
2022/03/23 09:28:44;;;;;;;20.13;16.10;;;12.50;93.30;;;;;;5051807;28;20256;-51
2022/03/23 09:31:13;;;;;;;19.83;16.40;;;12.60;93.00;;;;;;5052193;28;20213;-51
2022/03/23 09:33:43;;;;;;;18.67;15.50;;;12.70;93.10;;;;;;5051246;28;20607;-51
2022/03/23 09:37:47;;;;;;;20.07;15.87;;;12.70;93.00;;;;;;5052016;28;20221;-51
2022/03/23 09:39:12;;;;;;;19.00;16.70;;;12.80;93.10;;;;;;5051794;28;20701;-51
2022/03/23 09:41:43;;;;;;;22.63;17.33;;;12.90;94.40;;;;;;5051565;28;20209;-51
2022/03/23 09:44:12;;;;;;;20.73;16.80;;;12.90;94.90;;;;;;5051050;28;20616;-51
2022/03/23 09:46:42;;;;;;;22.80;17.50;;;13.00;94.40;;;;;;5051541;28;20198;-51
2022/03/23 09:49:11;;;;;;;20.27;16.37;;;13.10;94.90;;;;;;5051961;28;20198;-51
2022/03/23 09:51:41;;;;;;;20.53;17.03;;;13.20;95.10;;;;;;5051304;28;20749;-51
2022/03/23 09:54:09;;;;;;;21.03;17.10;;;13.30;94.20;;;;;;5051744;28;20182;-51
2022/03/23 09:56:38;;;;;;;19.80;16.93;;;13.30;93.10;;;;;;5051239;28;20225;-51
2022/03/23 09:59:06;;;;;;;19.90;17.10;;;13.40;93.00;;;;;;5051457;28;20236;-50
2022/03/23 10:02:12;;;;;;;30.40;21.93;;;13.40;92.30;;;;;;5051239;28;20217;-51
2022/03/23 10:05:38;;;;;;;20.67;16.47;;;13.50;92.30;;;;;;5018367;28;20666;-51
2022/03/23 10:08:43;;;;;;;22.27;16.13;;;13.60;90.80;;;;;;5034294;28;20600;-51
2022/03/23 10:12:14;;;;;;;17.00;15.20;;;13.60;90.20;;;;;;5040833;28;20205;-51
2022/03/23 10:15:20;;;;;;;19.37;15.60;;;13.70;90.40;;;;;;5050272;28;20674;-51
2022/03/23 10:18:56;;;;;;;19.87;15.60;;;13.80;90.60;;;;;;5051654;28;20230;-51
2022/03/23 10:21:28;;;;;;;18.97;15.73;;;13.90;92.90;;;;;;4950579;29;20312;-51
2022/03/23 10:24:30;;;;;;;21.33;16.17;;;14.00;93.20;;;;;;4989294;28;20212;-51
2022/03/23 10:26:59;;;;;;;18.93;15.90;;;14.10;92.60;;;;;;5032797;28;20229;-51
2022/03/23 10:29:27;;;;;;;18.77;15.20;;;14.20;92.30;;;;;;5051374;28;20210;-52
2022/03/23 10:32:04;;;;;;;18.73;15.50;;;14.20;91.10;;;;;;5041782;28;20237;-51
2022/03/23 10:34:42;;;;;;;17.97;15.73;;;14.30;90.30;;;;;;5031187;28;20287;-52
2022/03/23 10:37:13;;;;;;;19.60;15.40;;;14.30;90.60;;;;;;5030367;28;20234;-51
2022/03/23 10:39:45;;;;;;;19.30;15.93;;;14.40;90.50;;;;;;5047353;28;20251;-51
2022/03/23 10:42:16;;;;;;;18.37;16.07;;;14.50;90.00;;;;;;5050347;28;20201;-52
2022/03/23 10:44:45;;;;;;;20.90;16.03;;;14.50;90.10;;;;;;5034207;28;20217;-51
2022/03/23 10:47:32;;;;;;;18.67;15.90;;;14.50;90.20;;;;;;5030794;28;20601;-51
2022/03/23 10:50:12;;;;;;;19.13;15.43;;;14.50;88.40;;;;;;5031011;28;20214;-51
2022/03/23 10:52:56;;;;;;;19.90;14.33;;;14.60;87.20;;;;;;5049028;28;20206;-51
2022/03/23 10:55:25;;;;;;;16.50;14.70;;;14.70;87.80;;;;;;5035404;28;20244;-52
2022/03/23 10:58:21;;;;;;;19.20;15.70;;;14.70;89.20;;;;;;5030362;28;20226;-51
2022/03/23 11:00:50;;;;;;;18.70;15.10;;;14.80;88.60;;;;;;5044211;28;20267;-51
2022/03/23 11:03:18;;;;;;;20.60;14.43;;;14.90;89.90;;;;;;5030480;28;20206;-51
2022/03/23 11:05:48;;;;;;;18.53;13.70;;;15.00;88.10;;;;;;5036464;28;20212;-51
2022/03/23 11:08:22;;;;;;;19.63;13.93;;;15.10;86.10;;;;;;5050787;28;20286;-50
2022/03/23 11:16:27;;;;;;;17.17;13.33;;;15.10;83.50;;;;;;5030682;28;20295;-51
2022/03/23 11:18:58;;;;;;;16.47;12.73;;;15.10;81.90;;;;;;5031726;28;20937;-51
2022/03/23 11:21:28;;;;;;;15.80;12.47;;;15.20;78.10;;;;;;5050796;28;20205;-51
2022/03/23 11:23:58;;;;;;;14.60;13.00;;;15.20;76.70;;;;;;5050212;28;20212;-51
2022/03/23 11:26:27;;;;;;;14.02;12.52;;;15.20;76.60;;;;;;5052944;28;20228;-51
2022/03/23 11:29:01;;;;;;;14.53;11.83;;;15.20;76.40;;;;;;5054438;28;20252;-51
2022/03/23 11:31:30;;;;;;;14.20;11.97;;;15.30;79.50;;;;;;5053890;28;20221;-51
2022/03/23 11:33:59;;;;;;;15.40;11.85;;;15.40;77.20;;;;;;5053564;28;20296;-51
2022/03/23 11:36:29;;;;;;;15.10;12.03;;;15.40;76.70;;;;;;5054161;28;20236;-52
2022/03/23 11:39:00;;;;;;;15.65;12.07;;;15.40;78.50;;;;;;5054288;28;20221;-51
2022/03/23 11:41:29;;;;;;;16.33;12.60;;;15.50;77.70;;;;;;5053930;28;20950;-51
2022/03/23 11:43:57;;;;;;;14.23;12.70;;;15.50;75.50;;;;;;5053762;28;20206;-51
2022/03/23 11:46:26;;;;;;;16.43;12.97;;;15.50;77.20;;;;;;5053710;28;20209;-50
2022/03/23 11:49:02;;;;;;;16.73;12.88;;;15.50;76.40;;;;;;5054194;28;20225;-51
2022/03/23 11:51:50;;;;;;;16.98;13.63;;;15.50;78.60;;;;;;5054045;28;20213;-51
2022/03/23 11:55:36;;;;;;;18.90;13.80;;;15.60;78.00;;;;;;5053504;28;20205;-51
2022/03/23 11:57:19;;;;;;;15.95;12.15;;;15.60;77.30;;;;;;5052809;28;20302;-50
2022/03/23 11:59:47;;;;;;;18.27;12.50;;;15.70;78.50;;;;;;5054036;28;20204;-51
2022/03/23 12:02:18;;;;;;;18.80;12.90;;;15.70;80.40;;;;;;5053104;28;20259;-52
2022/03/23 12:04:47;;;;;;;16.60;13.90;;;15.70;78.60;;;;;;5053483;28;20216;-51
2022/03/23 12:07:16;;;;;;;15.80;13.50;;;15.70;74.90;;;;;;5053368;28;20221;-51
2022/03/23 12:09:47;;;;;;;16.02;13.82;;;15.60;74.30;;;;;;5053830;28;20206;-51
2022/03/23 12:12:28;;;;;;;15.93;13.23;;;15.70;72.90;;;;;;5052551;28;20202;-51
2022/03/23 12:15:26;;;;;;;15.83;13.27;;;15.70;76.90;;;;;;5053871;28;20618;-51
2022/03/23 12:18:02;;;;;;;19.60;14.52;;;15.70;75.60;;;;;;5051705;28;20233;-51
2022/03/23 12:20:31;;;;;;;17.13;12.88;;;15.80;72.30;;;;;;5052973;28;20205;-51
2022/03/23 12:23:26;;;;;;;16.40;13.07;;;15.80;73.40;;;;;;5052653;28;20694;-51
2022/03/23 12:26:07;;;;;;;18.15;13.98;;;15.80;73.70;;;;;;5053533;28;20197;-51
2022/03/23 12:28:50;;;;;;;17.30;13.57;;;15.90;69.00;;;;;;5053192;28;20752;-51
2022/03/23 12:31:18;;;;;;;16.80;14.63;;;15.90;70.20;;;;;;5053095;28;20290;-51
2022/03/23 12:34:05;;;;;;;15.90;13.43;;;15.90;70.50;;;;;;5052425;28;20205;-50
2022/03/23 12:39:33;;;;;;;19.23;13.57;;;15.80;69.60;;;;;;5053493;28;20202;-52
2022/03/23 12:42:19;;;;;;;20.13;14.32;;;15.80;71.90;;;;;;5053006;28;20271;-51
2022/03/23 12:44:50;;;;;;;17.52;13.95;;;15.80;70.70;;;;;;5050975;28;20209;-51
2022/03/23 12:47:20;;;;;;;16.85;13.77;;;15.80;70.70;;;;;;5052973;28;20221;-53
2022/03/23 12:58:18;;;;;;;17.23;13.90;;;15.80;68.50;;;;;;5052485;28;20263;-51
2022/03/23 13:00:49;;;;;;;17.60;14.10;;;15.80;68.70;;;;;;5050377;28;20251;-51
2022/03/23 13:03:47;;;;;;;17.77;14.02;;;15.90;71.70;;;;;;5051966;28;20212;-51
2022/03/23 13:06:17;;;;;;;17.38;14.05;;;16.00;71.90;;;;;;5052819;28;20288;-52
2022/03/23 13:08:49;;;;;;;22.67;13.75;;;16.00;71.10;;;;;;5052450;28;20271;-50
2022/03/23 13:11:21;;;;;;;17.27;14.32;;;16.10;70.60;;;;;;5051811;28;20204;-51
2022/03/23 13:13:54;;;;;;;18.35;13.02;;;16.10;69.80;;;;;;5051743;28;20729;-51
2022/03/23 13:16:24;;;;;;;16.30;12.88;;;16.10;70.10;;;;;;5036248;28;20217;-51
2022/03/23 13:18:57;;;;;;;16.65;13.82;;;16.20;71.70;;;;;;5031905;28;20234;-52